Time;durP1;ratioP1;P1;durP2;ratioP2;P2;SDS_P1;SDS_P2;PMS_P1;PMS_P2;Temp;Humidity;BMP_temperature;BMP_pressure;BME280_temperature;BME280_humidity;BME280_pressure;Samples;Min_cycle;Max_cycle;Signal;HPM_P1;HPM_P2
2023/03/29 00:01:20;;;;;;;5.80;2.60;;;;;;;8.80;39.84;98382.31;8381849;28;20236;-70
2023/03/29 00:05:40;;;;;;;4.20;2.53;;;;;;;9.26;38.93;98387.78;8381959;28;20459;-70
2023/03/29 00:09:42;;;;;;;3.33;2.30;;;;;;;9.18;39.25;98369.94;8380720;28;20229;-69
2023/03/29 00:13:45;;;;;;;4.40;2.67;;;;;;;8.87;40.11;98383.81;8381535;28;20508;-69
2023/03/29 00:17:49;;;;;;;4.63;2.33;;;;;;;9.28;39.84;98383.41;8381531;28;20228;-70
2023/03/29 00:21:53;;;;;;;4.70;2.63;;;;;;;8.60;40.98;98362.25;8381226;28;20235;-70
2023/03/29 00:25:56;;;;;;;3.73;2.60;;;;;;;8.92;40.61;98352.66;8381183;28;20240;-70
2023/03/29 00:29:59;;;;;;;5.70;2.60;;;;;;;8.96;40.90;98339.59;8381213;28;20460;-70
2023/03/29 00:34:02;;;;;;;3.77;2.70;;;;;;;8.65;41.81;98331.16;8380858;28;20238;-70
2023/03/29 00:38:06;;;;;;;3.07;2.60;;;;;;;8.35;43.27;98306.16;8380778;28;20539;-70
2023/03/29 00:42:12;;;;;;;4.30;2.53;;;;;;;8.77;42.96;98325.59;8380869;28;20229;-70
2023/03/29 00:46:14;;;;;;;4.33;2.60;;;;;;;8.15;43.93;98326.56;8380706;28;20532;-70
2023/03/29 00:50:21;;;;;;;4.10;2.40;;;;;;;8.21;43.75;98318.63;8380116;28;20225;-70
2023/03/29 00:54:28;;;;;;;3.73;2.20;;;;;;;7.73;45.18;98321.69;8380099;28;20224;-70
2023/03/29 00:58:35;;;;;;;4.87;2.57;;;;;;;8.33;43.51;98317.44;8380188;28;20244;-70
2023/03/29 01:02:39;;;;;;;5.00;2.43;;;;;;;7.63;44.88;98303.06;8379987;28;20237;-70
2023/03/29 01:06:44;;;;;;;3.40;2.20;;;;;;;8.15;43.66;98291.28;8379566;28;20467;-68
2023/03/29 01:10:51;;;;;;;3.53;2.17;;;;;;;8.32;43.52;98297.66;8379763;28;20233;-69
2023/03/29 01:14:56;;;;;;;3.60;2.13;;;;;;;8.22;43.97;98284.19;8379804;28;20247;-69
2023/03/29 01:19:01;;;;;;;4.00;2.63;;;;;;;8.19;43.41;98277.41;8378900;28;20228;-70
2023/03/29 01:23:15;;;;;;;5.77;2.80;;;;;;;7.95;44.56;98268.63;8379296;28;20416;-69
2023/03/29 01:27:33;;;;;;;6.73;2.93;;;;;;;8.26;43.03;98264.31;8379532;28;20232;-70
2023/03/29 01:31:38;;;;;;;5.63;2.93;;;;;;;8.31;43.45;98265.84;8379439;28;20232;-69
2023/03/29 01:35:43;;;;;;;4.20;2.40;;;;;;;8.82;43.18;98258.31;8379128;28;20256;-69
2023/03/29 01:39:46;;;;;;;3.47;2.30;;;;;;;8.92;42.77;98259.69;8378710;28;20343;-69
2023/03/29 01:43:56;;;;;;;3.90;2.57;;;;;;;9.09;43.15;98254.78;8379204;28;20233;-69
2023/03/29 01:48:01;;;;;;;5.63;2.70;;;;;;;9.02;43.27;98244.72;8378889;28;20229;-69
2023/03/29 01:52:08;;;;;;;5.37;2.77;;;;;;;9.08;43.67;98235.03;8378866;28;20224;-70
2023/03/29 01:56:13;;;;;;;6.03;2.80;;;;;;;9.14;44.25;98232.25;8378796;28;20307;-70
2023/03/29 02:00:20;;;;;;;5.33;2.83;;;;;;;9.03;43.79;98242.09;8378854;28;20227;-69
2023/03/29 02:04:26;;;;;;;6.27;3.03;;;;;;;9.21;43.82;98225.09;8378647;28;20232;-70
2023/03/29 02:08:29;;;;;;;4.40;2.70;;;;;;;9.20;43.53;98224.28;8378772;28;20300;-70
2023/03/29 02:12:32;;;;;;;4.43;2.73;;;;;;;8.76;44.90;98221.47;8378302;28;20229;-70
2023/03/29 02:16:37;;;;;;;4.70;2.87;;;;;;;9.32;44.81;98228.16;8378446;28;20225;-70
2023/03/29 02:20:46;;;;;;;3.60;2.53;;;;;;;9.28;44.87;98221.41;8378200;28;20232;-70
2023/03/29 02:24:50;;;;;;;3.60;2.50;;;;;;;9.34;45.68;98218.59;8377789;28;20237;-69
2023/03/29 02:28:53;;;;;;;2.90;2.40;;;;;;;9.39;46.17;98224.47;8378222;28;20270;-69
2023/03/29 02:32:59;;;;;;;3.33;2.30;;;;;;;9.42;46.37;98220.91;8382806;28;20236;-70
2023/03/29 02:37:05;;;;;;;3.20;2.40;;;;;;;9.48;46.64;98212.97;8384735;28;20232;-70
2023/03/29 02:41:09;;;;;;;3.00;2.50;;;;;;;9.53;47.12;98208.47;8384620;28;20228;-70
2023/03/29 02:45:14;;;;;;;3.10;2.50;;;;;;;9.56;47.30;98197.19;8384581;28;20228;-69
2023/03/29 02:49:18;;;;;;;2.97;2.53;;;;;;;9.25;48.84;98184.50;8384301;28;20598;-70
2023/03/29 02:53:25;;;;;;;2.33;2.13;;;;;;;9.62;48.43;98185.78;8383981;28;20552;-70
2023/03/29 02:57:28;;;;;;;2.30;2.10;;;;;;;9.53;49.06;98182.59;8383915;28;20228;-70
2023/03/29 03:01:31;;;;;;;4.43;2.30;;;;;;;9.58;49.55;98183.28;8383793;28;20241;-70
2023/03/29 03:05:35;;;;;;;2.43;2.23;;;;;;;9.52;49.91;98172.31;8383729;28;20524;-70
2023/03/29 03:09:38;;;;;;;3.53;2.60;;;;;;;8.49;53.82;98181.03;8383747;28;20274;-70
2023/03/29 03:13:41;;;;;;;2.30;2.10;;;;;;;9.34;51.26;98168.66;8383109;28;20232;-68
2023/03/29 03:17:45;;;;;;;4.37;2.30;;;;;;;8.57;53.03;98177.31;8383442;28;20447;-69
2023/03/29 03:21:50;;;;;;;3.10;2.40;;;;;;;8.68;53.39;98173.53;8383346;28;20233;-70
2023/03/29 03:25:53;;;;;;;4.97;2.70;;;;;;;8.77;52.52;98166.31;8382828;28;20241;-69
2023/03/29 03:29:56;;;;;;;3.50;2.77;;;;;;;8.80;52.50;98158.47;8383019;28;20528;-70
2023/03/29 03:33:59;;;;;;;3.47;2.80;;;;;;;8.21;54.92;98166.41;8382809;28;20489;-70
2023/03/29 03:38:06;;;;;;;3.43;2.80;;;;;;;8.13;56.03;98171.81;8382753;28;20220;-70
2023/03/29 03:42:08;;;;;;;3.03;2.70;;;;;;;8.39;54.80;98172.72;8381607;28;20236;-70
2023/03/29 03:46:11;;;;;;;2.93;2.57;;;;;;;8.46;54.88;98153.59;8382498;28;20282;-70
2023/03/29 03:50:16;;;;;;;2.70;2.50;;;;;;;8.50;54.58;98142.28;8382373;28;20229;-70
2023/03/29 03:54:20;;;;;;;4.13;2.70;;;;;;;8.03;55.56;98126.56;8382212;28;20540;-70
2023/03/29 03:58:23;;;;;;;3.80;2.40;;;;;;;8.22;55.61;98131.97;8382309;28;20221;-70
2023/03/29 04:02:26;;;;;;;3.00;2.63;;;;;;;8.75;53.87;98137.13;8382130;28;20229;-70
2023/03/29 04:06:29;;;;;;;5.23;3.00;;;;;;;8.51;54.20;98128.50;8381783;28;20224;-70
2023/03/29 04:10:34;;;;;;;3.03;2.43;;;;;;;8.70;53.09;98123.53;8381738;28;20236;-70
2023/03/29 04:14:36;;;;;;;2.63;2.43;;;;;;;8.87;53.28;98125.56;8381583;28;20544;-71
2023/03/29 04:18:39;;;;;;;2.97;2.57;;;;;;;8.53;54.59;98123.25;8381368;28;20252;-71
2023/03/29 04:22:42;;;;;;;3.73;2.90;;;;;;;8.48;54.72;98120.00;8381142;28;20343;-70
2023/03/29 04:26:47;;;;;;;3.60;2.67;;;;;;;8.95;52.85;98125.28;8381034;28;20306;-72
2023/03/29 04:30:50;;;;;;;3.57;3.00;;;;;;;8.63;53.80;98124.66;8380996;28;20237;-71
2023/03/29 04:34:54;;;;;;;4.00;3.20;;;;;;;7.80;57.15;98117.78;8380736;28;20292;-71
2023/03/29 04:39:00;;;;;;;3.53;2.50;;;;;;;8.29;55.49;98109.41;8380519;28;20224;-71
2023/03/29 04:43:04;;;;;;;3.57;2.80;;;;;;;8.31;55.49;98102.47;8380515;28;20224;-70
2023/03/29 04:47:06;;;;;;;4.30;2.80;;;;;;;7.88;56.78;98103.81;8380514;28;20411;-71
2023/03/29 04:51:10;;;;;;;3.97;2.73;;;;;;;8.21;55.97;98102.75;8380266;28;20225;-71
2023/03/29 04:55:13;;;;;;;2.97;2.60;;;;;;;8.31;56.17;98097.31;8379916;28;20569;-71
2023/03/29 04:59:17;;;;;;;2.90;2.60;;;;;;;8.71;54.57;98099.41;8380153;28;20221;-71
2023/03/29 05:03:20;;;;;;;4.63;2.93;;;;;;;8.73;54.48;98095.03;8379806;28;20248;-71
2023/03/29 05:07:23;;;;;;;3.47;2.93;;;;;;;8.72;54.46;98092.50;8379410;28;20220;-71
2023/03/29 05:11:28;;;;;;;4.17;3.10;;;;;;;8.03;57.19;98108.50;8380028;28;20331;-71
2023/03/29 05:15:32;;;;;;;3.40;3.03;;;;;;;8.25;56.60;98090.59;8379809;28;20527;-70
2023/03/29 05:19:35;;;;;;;3.60;3.30;;;;;;;7.88;56.91;98096.09;8379483;28;20465;-70
2023/03/29 05:23:38;;;;;;;4.17;2.90;;;;;;;8.07;56.85;98101.50;8379388;28;20240;-70
2023/03/29 05:27:44;;;;;;;3.63;3.00;;;;;;;8.17;56.28;98088.28;8379418;28;20458;-71
2023/03/29 05:31:49;;;;;;;3.13;2.83;;;;;;;7.75;58.01;98072.41;8379073;28;20224;-70
2023/03/29 05:35:58;;;;;;;3.20;2.90;;;;;;;7.61;58.51;98078.00;8379119;28;20239;-70
2023/03/29 05:40:08;;;;;;;3.40;3.07;;;;;;;7.60;59.06;98076.34;8378992;28;20237;-70
2023/03/29 05:44:12;;;;;;;3.37;3.07;;;;;;;7.28;60.43;98080.72;8379042;28;20240;-70
2023/03/29 05:48:16;;;;;;;3.80;2.87;;;;;;;7.44;59.73;98081.97;8379186;28;20254;-71
2023/03/29 05:52:19;;;;;;;3.83;2.90;;;;;;;8.19;56.93;98080.50;8379157;28;20539;-71
2023/03/29 05:56:22;;;;;;;3.37;3.07;;;;;;;7.67;58.47;98077.81;8379043;28;20234;-71
2023/03/29 06:00:25;;;;;;;4.47;3.33;;;;;;;8.26;56.79;98068.22;8379069;28;20225;-71
2023/03/29 06:04:30;;;;;;;3.07;2.77;;;;;;;7.92;56.78;98010.88;8378703;28;20252;-70
2023/03/29 06:08:33;;;;;;;3.27;2.97;;;;;;;8.16;57.18;98080.59;8384932;28;20316;-71
2023/03/29 06:12:36;;;;;;;3.87;3.23;;;;;;;8.09;56.82;98087.69;8385599;28;20238;-71
2023/03/29 06:16:39;;;;;;;3.87;3.20;;;;;;;7.42;59.17;98093.19;8385503;28;20236;-70
2023/03/29 06:20:47;;;;;;;3.63;3.33;;;;;;;7.79;58.42;98097.25;8384879;28;20508;-70
2023/03/29 06:24:51;;;;;;;5.27;3.47;;;;;;;7.08;59.79;98089.00;8385026;28;20247;-70
2023/03/29 06:28:53;;;;;;;6.27;3.30;;;;;;;8.06;57.64;98092.09;8385127;28;20232;-71
2023/03/29 06:32:56;;;;;;;3.43;3.13;;;;;;;7.67;58.45;98076.97;8384984;28;20237;-71
2023/03/29 06:37:01;;;;;;;3.87;3.20;;;;;;;7.53;59.30;98090.28;8385049;28;20284;-71
2023/03/29 06:41:04;;;;;;;4.30;3.70;;;;;;;8.05;57.49;98091.25;8384397;28;20247;-71
2023/03/29 06:45:11;;;;;;;3.63;3.30;;;;;;;7.87;58.11;98086.69;8384491;28;20568;-71
2023/03/29 06:49:14;;;;;;;3.97;3.57;;;;;;;7.87;57.83;98092.69;8384669;28;20232;-71
2023/03/29 06:53:18;;;;;;;3.80;3.40;;;;;;;8.29;56.25;98091.34;8384202;28;20233;-69
2023/03/29 06:57:22;;;;;;;3.90;3.43;;;;;;;8.71;55.84;98096.81;8383928;28;20228;-70
2023/03/29 07:01:25;;;;;;;3.80;3.50;;;;;;;8.45;56.07;98097.69;8384150;28;20235;-71
2023/03/29 07:05:32;;;;;;;3.77;3.47;;;;;;;8.71;55.49;98098.56;8383617;28;20302;-69
2023/03/29 07:09:38;;;;;;;4.43;4.00;;;;;;;8.67;56.10;98104.72;8383911;28;20339;-69
2023/03/29 07:13:42;;;;;;;3.80;3.50;;;;;;;8.93;55.27;98106.38;8383375;28;20296;-68
2023/03/29 07:17:45;;;;;;;3.50;3.20;;;;;;;8.85;55.29;98100.66;8383510;28;20310;-69
2023/03/29 07:21:48;;;;;;;4.30;3.90;;;;;;;9.69;52.95;98100.16;8383576;28;20428;-70
2023/03/29 07:25:52;;;;;;;4.13;3.70;;;;;;;9.87;52.58;98103.75;8383271;28;20244;-70
2023/03/29 07:29:56;;;;;;;5.53;3.70;;;;;;;10.44;51.11;98106.66;8383170;28;20232;-69
2023/03/29 07:33:59;;;;;;;4.13;3.73;;;;;;;10.79;50.29;98101.75;8382696;28;20237;-69
2023/03/29 07:38:02;;;;;;;3.77;3.43;;;;;;;10.22;50.99;98098.91;8383168;28;20334;-70
2023/03/29 07:42:06;;;;;;;4.73;3.80;;;;;;;10.93;49.85;98106.34;8383039;28;20235;-70
2023/03/29 07:46:09;;;;;;;3.47;3.27;;;;;;;11.20;49.34;98112.06;8382751;28;20559;-70
2023/03/29 07:50:13;;;;;;;3.73;3.40;;;;;;;11.53;48.92;98104.47;8382520;28;20225;-70
2023/03/29 07:54:18;;;;;;;3.57;3.27;;;;;;;11.83;48.44;98096.19;8382404;28;20242;-70
2023/03/29 07:58:22;;;;;;;4.63;3.30;;;;;;;12.66;45.99;98091.31;8382468;28;20512;-70
2023/03/29 08:02:25;;;;;;;3.43;3.20;;;;;;;13.13;45.35;98098.41;8382141;28;20234;-70
2023/03/29 08:06:28;;;;;;;3.10;2.90;;;;;;;14.11;42.40;98096.63;8381945;28;20237;-71
2023/03/29 08:10:33;;;;;;;3.13;2.87;;;;;;;13.89;42.75;98096.06;8381941;28;20244;-70
2023/03/29 08:14:37;;;;;;;3.33;3.03;;;;;;;14.08;41.90;98095.03;8381634;28;20233;-70
2023/03/29 08:18:40;;;;;;;5.93;3.00;;;;;;;14.28;41.16;98094.75;8381478;28;20231;-70
2023/03/29 08:22:45;;;;;;;3.03;2.77;;;;;;;14.48;40.37;98097.97;8381009;28;20232;-69
2023/03/29 08:26:47;;;;;;;3.77;3.40;;;;;;;14.26;40.02;98095.78;8381245;28;20241;-71
2023/03/29 08:30:52;;;;;;;3.13;2.83;;;;;;;14.43;41.05;98089.56;8380516;28;20238;-70
2023/03/29 08:34:55;;;;;;;3.00;2.80;;;;;;;14.87;39.27;98086.16;8380957;28;20464;-70
2023/03/29 08:39:01;;;;;;;3.60;3.10;;;;;;;15.48;38.52;98097.22;8380817;28;20234;-70
2023/03/29 08:43:27;;;;;;;2.90;2.70;;;;;;;15.99;37.53;98092.28;8380955;28;20231;-70
2023/03/29 08:47:41;;;;;;;3.47;3.00;;;;;;;16.14;36.70;98094.81;8380597;28;20471;-70
2023/03/29 08:51:47;;;;;;;3.80;2.80;;;;;;;16.09;37.10;98089.91;8380050;28;20255;-70
2023/03/29 08:55:53;;;;;;;3.37;2.97;;;;;;;16.30;39.48;98089.44;8380386;28;20237;-73
2023/03/29 08:59:58;;;;;;;3.30;2.80;;;;;;;16.10;39.15;98096.78;8380075;28;20236;-73
2023/03/29 09:04:07;;;;;;;3.30;2.53;;;;;;;16.36;40.61;98087.25;8379872;28;20242;-73
2023/03/29 09:08:14;;;;;;;2.80;2.57;;;;;;;15.63;40.68;98080.59;8380009;28;20408;-72
2023/03/29 09:12:26;;;;;;;2.73;2.20;;;;;;;15.07;40.76;98087.53;8379689;28;20225;-72
2023/03/29 09:16:32;;;;;;;2.93;2.17;;;;;;;16.32;40.44;98077.94;8379333;28;20238;-73
2023/03/29 09:20:43;;;;;;;3.67;1.90;;;;;;;16.41;39.78;98077.34;8379302;28;20225;-73
2023/03/29 09:25:00;;;;;;;2.17;1.97;;;;;;;16.30;38.26;98073.78;8378773;28;20236;-71
2023/03/29 09:29:16;;;;;;;3.33;1.60;;;;;;;15.56;36.16;98081.91;8379171;28;20231;-70
2023/03/29 09:33:23;;;;;;;2.93;1.90;;;;;;;15.32;36.26;98086.06;8379418;28;20228;-71
2023/03/29 09:37:31;;;;;;;3.10;1.60;;;;;;;15.52;36.40;98074.38;8379475;28;20220;-71
2023/03/29 09:41:35;;;;;;;1.83;1.60;;;;;;;15.67;36.62;98081.25;8378380;28;20252;-72
2023/03/29 09:45:39;;;;;;;2.07;1.70;;;;;;;15.10;37.53;98081.28;8379405;28;20240;-72
2023/03/29 09:49:45;;;;;;;1.60;1.40;;;;;;;15.34;36.58;98092.00;8378963;28;20422;-69
2023/03/29 09:53:50;;;;;;;1.90;1.70;;;;;;;15.27;37.26;98081.13;8378954;28;20236;-71
2023/03/29 09:57:52;;;;;;;1.70;1.60;;;;;;;15.24;36.51;98074.31;8378525;28;20231;-70
2023/03/29 10:02:06;;;;;;;1.80;1.70;;;;;;;15.18;37.01;98074.69;8378548;28;20231;-71
2023/03/29 10:06:10;;;;;;;3.63;1.90;;;;;;;15.33;38.12;98072.91;8379148;28;20232;-71
2023/03/29 10:10:23;;;;;;;2.07;1.83;;;;;;;15.39;37.03;98069.09;8378779;28;20524;-71
2023/03/29 10:14:32;;;;;;;2.23;1.90;;;;;;;15.62;37.35;98081.53;8378596;28;20542;-72
2023/03/29 10:18:40;;;;;;;3.37;1.80;;;;;;;15.51;36.90;98070.91;8378369;28;20251;-71
2023/03/29 10:22:48;;;;;;;2.30;1.63;;;;;;;15.35;37.46;98078.03;8378217;28;20225;-71
2023/03/29 10:26:54;;;;;;;3.40;2.13;;;;;;;15.34;37.56;98082.41;8378486;28;20235;-71
2023/03/29 10:30:59;;;;;;;3.00;1.57;;;;;;;15.24;37.46;98073.47;8377994;28;20235;-71
2023/03/29 10:35:09;;;;;;;2.83;1.40;;;;;;;15.33;37.48;98074.69;8378067;28;20433;-72
2023/03/29 10:39:15;;;;;;;1.87;1.63;;;;;;;15.11;37.95;98070.78;8378178;28;20331;-71
2023/03/29 10:43:24;;;;;;;1.77;1.50;;;;;;;15.39;37.04;98076.91;8378130;28;20232;-71
2023/03/29 10:47:33;;;;;;;2.90;1.67;;;;;;;15.32;36.66;98067.78;8377765;28;20232;-72
2023/03/29 10:51:36;;;;;;;2.63;1.50;;;;;;;15.19;37.41;98060.72;8378490;28;20232;-71
2023/03/29 10:55:46;;;;;;;3.63;1.60;;;;;;;15.62;36.78;98059.81;8383883;28;20434;-71
2023/03/29 10:59:54;;;;;;;2.57;1.73;;;;;;;16.05;37.33;98064.94;8383451;28;20512;-71
2023/03/29 11:04:07;;;;;;;2.17;1.47;;;;;;;16.16;36.87;98067.69;8383924;28;20256;-72
2023/03/29 11:08:25;;;;;;;2.80;1.80;;;;;;;16.36;36.70;98055.06;8384074;28;20279;-72
2023/03/29 11:12:35;;;;;;;2.53;1.73;;;;;;;16.64;36.52;98061.03;8384301;28;20230;-72
2023/03/29 11:16:46;;;;;;;2.67;2.03;;;;;;;16.38;35.98;98059.25;8383141;28;20542;-71
2023/03/29 11:20:54;;;;;;;2.10;1.30;;;;;;;16.96;35.88;98037.94;8382812;28;20244;-72
2023/03/29 11:25:17;;;;;;;2.87;1.90;;;;;;;16.92;35.08;98052.19;8383307;28;20518;-71
2023/03/29 11:29:24;;;;;;;1.70;1.47;;;;;;;16.97;34.97;98058.78;8383450;28;20504;-71
2023/03/29 11:33:36;;;;;;;2.17;1.47;;;;;;;17.08;35.19;98046.75;8382903;28;20543;-71
2023/03/29 11:37:47;;;;;;;2.67;1.27;;;;;;;17.28;36.22;98053.19;8383334;28;20236;-71
2023/03/29 11:41:54;;;;;;;3.67;1.63;;;;;;;16.84;35.00;98044.88;8382474;28;20230;-71
2023/03/29 11:46:01;;;;;;;2.37;1.70;;;;;;;16.87;36.13;98046.41;8382383;28;20239;-71
2023/03/29 11:50:13;;;;;;;1.60;1.30;;;;;;;16.74;36.81;98039.41;8382769;28;20227;-73
2023/03/29 11:54:19;;;;;;;2.53;1.70;;;;;;;16.65;35.84;98041.81;8382742;28;20273;-72
2023/03/29 11:58:27;;;;;;;1.50;1.40;;;;;;;16.88;35.74;98041.09;8382583;28;20226;-73
2023/03/29 12:02:35;;;;;;;1.97;1.40;;;;;;;17.34;34.83;98024.81;8382650;28;20228;-75
2023/03/29 12:06:44;;;;;;;1.73;1.20;;;;;;;17.50;36.01;98031.56;8381573;28;20238;-73
2023/03/29 12:10:52;;;;;;;2.70;1.30;;;;;;;17.30;35.07;98032.97;8381653;28;20230;-72
2023/03/29 12:14:59;;;;;;;2.60;1.60;;;;;;;16.81;36.33;97996.19;8381570;28;20244;-72
2023/03/29 12:19:05;;;;;;;1.33;1.20;;;;;;;17.24;35.76;98036.84;8381766;28;20239;-72
2023/03/29 12:23:13;;;;;;;2.63;1.43;;;;;;;16.96;35.52;98035.34;8381472;28;20232;-72
2023/03/29 12:27:22;;;;;;;3.03;1.23;;;;;;;17.17;36.24;98039.09;8381785;28;20292;-72
2023/03/29 12:31:30;;;;;;;1.57;1.10;;;;;;;17.31;35.54;98024.19;8381283;28;20230;-72
2023/03/29 12:35:37;;;;;;;1.73;1.30;;;;;;;17.56;34.87;98031.94;8381369;28;20250;-71
2023/03/29 12:39:41;;;;;;;1.77;1.23;;;;;;;17.61;34.89;98020.31;8381128;28;20231;-72
2023/03/29 12:43:44;;;;;;;2.60;1.80;;;;;;;17.47;36.08;98021.31;8380637;28;20515;-71
2023/03/29 12:47:49;;;;;;;1.70;1.33;;;;;;;17.37;36.12;98014.09;8380488;28;20244;-72
2023/03/29 12:51:51;;;;;;;2.60;1.50;;;;;;;17.31;36.04;98016.34;8380715;28;20234;-72
2023/03/29 12:56:11;;;;;;;2.17;1.60;;;;;;;16.92;37.28;97998.09;8380396;28;20464;-72
2023/03/29 13:00:20;;;;;;;3.00;1.60;;;;;;;16.39;38.60;97999.97;8380541;28;20255;-72
2023/03/29 13:04:36;;;;;;;1.73;1.40;;;;;;;16.81;38.12;97990.97;8380181;28;20228;-72
2023/03/29 13:08:41;;;;;;;3.17;1.70;;;;;;;17.05;38.28;97984.16;8380452;28;20522;-71
2023/03/29 13:12:46;;;;;;;2.87;2.37;;;;;;;16.72;38.29;97994.22;8379890;28;20227;-72
2023/03/29 13:16:49;;;;;;;2.33;1.80;;;;;;;16.96;38.58;97978.66;8379985;28;20230;-73
2023/03/29 13:20:57;;;;;;;2.03;1.43;;;;;;;17.06;39.28;97985.81;8379970;28;20237;-72
2023/03/29 13:25:09;;;;;;;2.03;1.50;;;;;;;17.37;39.20;97982.69;8379406;28;20267;-72
2023/03/29 13:29:27;;;;;;;3.37;2.03;;;;;;;16.95;39.27;97981.34;8379663;28;20223;-73
2023/03/29 13:33:48;;;;;;;2.33;2.10;;;;;;;17.01;39.95;97978.31;8379406;28;20232;-72
2023/03/29 13:37:59;;;;;;;3.07;1.40;;;;;;;17.08;39.88;97942.91;8379116;28;20233;-72
2023/03/29 13:42:18;;;;;;;3.83;1.87;;;;;;;17.94;38.83;97970.72;8378992;28;20233;-72
2023/03/29 13:46:25;;;;;;;3.37;1.73;;;;;;;18.23;39.02;97965.09;8379151;28;20235;-73
2023/03/29 13:50:36;;;;;;;4.10;2.27;;;;;;;17.68;38.81;97959.53;8379216;28;20249;-72
2023/03/29 13:54:41;;;;;;;2.97;2.00;;;;;;;17.98;39.02;97971.34;8378977;28;20237;-72
2023/03/29 13:58:46;;;;;;;2.00;1.53;;;;;;;18.44;38.29;97961.78;8378256;28;20239;-70
2023/03/29 14:02:51;;;;;;;3.23;1.90;;;;;;;18.92;37.47;97964.19;8378505;28;20236;-72
2023/03/29 14:06:56;;;;;;;3.17;1.90;;;;;;;18.29;38.12;97958.53;8378575;28;20239;-71
2023/03/29 14:11:01;;;;;;;5.03;4.30;;;;;;;19.06;37.73;97963.97;8378401;28;20229;-72
2023/03/29 14:15:08;;;;;;;3.63;2.70;;;;;;;18.67;37.29;97965.25;8378199;28;20228;-72
2023/03/29 14:19:16;;;;;;;2.67;2.17;;;;;;;19.27;36.75;97971.09;8378340;28;20228;-72
2023/03/29 14:23:21;;;;;;;2.80;2.50;;;;;;;18.80;36.53;97967.78;8378196;28;20225;-73
2023/03/29 14:27:23;;;;;;;3.80;2.90;;;;;;;19.08;36.36;97963.84;8380436;28;20252;-72
2023/03/29 14:31:30;;;;;;;5.67;2.07;;;;;;;18.62;36.65;97939.41;8384966;28;20401;-70
2023/03/29 14:35:35;;;;;;;5.77;3.13;;;;;;;18.12;36.54;97939.69;8384814;28;20334;-72
2023/03/29 14:39:39;;;;;;;3.93;2.90;;;;;;;17.81;37.12;97935.06;8384867;28;20236;-72
2023/03/29 14:43:42;;;;;;;3.17;2.00;;;;;;;17.83;37.26;97941.00;8384329;28;20220;-72
2023/03/29 14:47:46;;;;;;;3.40;2.38;;;;;;;17.53;37.77;97926.59;8384346;28;20424;-71
2023/03/29 14:51:51;;;;;;;3.63;2.20;;;;;;;17.19;38.50;97929.91;8384321;28;20449;-72
2023/03/29 14:55:54;;;;;;;3.33;2.13;;;;;;;16.92;38.87;97924.84;8384123;28;20228;-72
2023/03/29 14:59:59;;;;;;;3.70;2.33;;;;;;;16.93;39.52;97910.84;8384257;28;20236;-72
2023/03/29 15:04:05;;;;;;;3.00;1.87;;;;;;;16.76;39.40;97912.00;8384129;28;20232;-72
2023/03/29 15:08:14;;;;;;;3.53;2.20;;;;;;;16.49;40.08;97906.94;8384005;28;20231;-72
2023/03/29 15:12:17;;;;;;;4.07;2.30;;;;;;;16.51;40.26;97910.28;8383857;28;20235;-72
2023/03/29 15:16:20;;;;;;;4.00;2.40;;;;;;;16.57;40.78;97907.22;8383461;28;20231;-72
2023/03/29 15:20:28;;;;;;;3.80;2.60;;;;;;;16.61;40.16;97906.06;8383385;28;20245;-72
2023/03/29 15:24:33;;;;;;;5.07;2.20;;;;;;;16.75;39.95;97905.13;8382976;28;20234;-72
2023/03/29 15:28:47;;;;;;;2.83;2.23;;;;;;;16.60;40.14;97896.56;8383092;28;20235;-72
2023/03/29 15:32:49;;;;;;;1.80;1.70;;;;;;;16.76;40.31;97883.22;8382482;28;20417;-73
2023/03/29 15:36:53;;;;;;;4.60;2.90;;;;;;;16.73;40.69;97888.66;8382663;28;20242;-73
2023/03/29 15:40:58;;;;;;;3.70;2.53;;;;;;;16.58;40.93;97880.16;8381445;28;20229;-73
2023/03/29 15:45:05;;;;;;;3.77;2.80;;;;;;;16.42;40.67;97880.38;8382665;28;20250;-72
2023/03/29 15:49:11;;;;;;;3.47;2.27;;;;;;;16.47;41.08;97876.59;8382785;28;20232;-72
2023/03/29 15:53:15;;;;;;;2.73;2.27;;;;;;;16.47;40.72;97867.00;8382507;28;20223;-72
2023/03/29 15:57:20;;;;;;;2.60;2.00;;;;;;;16.50;40.77;97858.09;8382087;28;20229;-73
2023/03/29 16:01:32;;;;;;;4.50;2.33;;;;;;;16.42;41.20;97869.91;8382161;28;20553;-72
2023/03/29 16:05:35;;;;;;;2.77;1.90;;;;;;;16.41;41.21;97860.41;8382076;28;20250;-72
2023/03/29 16:09:38;;;;;;;1.90;1.70;;;;;;;16.37;41.13;97851.13;8382033;28;20423;-72
2023/03/29 16:13:42;;;;;;;4.80;2.60;;;;;;;16.51;40.84;97855.38;8382012;28;20228;-73
2023/03/29 16:17:45;;;;;;;2.30;1.90;;;;;;;16.39;41.23;97851.84;8381403;28;20513;-70
2023/03/29 16:21:48;;;;;;;4.50;2.20;;;;;;;16.35;41.47;97852.16;8381596;28;20234;-72
2023/03/29 16:25:51;;;;;;;4.73;3.30;;;;;;;16.28;41.43;97853.50;8381406;28;20233;-73
2023/03/29 16:29:55;;;;;;;4.30;2.60;;;;;;;16.11;41.31;97824.19;8381134;28;20229;-73
2023/03/29 16:33:58;;;;;;;4.03;2.60;;;;;;;16.29;41.61;97847.38;8380990;28;20237;-72
2023/03/29 16:38:00;;;;;;;2.83;2.33;;;;;;;16.27;41.64;97839.63;8380756;28;20244;-72
2023/03/29 16:42:03;;;;;;;2.80;2.40;;;;;;;16.28;42.04;97840.44;8380846;28;20231;-72
2023/03/29 16:46:11;;;;;;;2.67;2.00;;;;;;;16.28;41.96;97832.59;8380623;28;20232;-71
2023/03/29 16:50:16;;;;;;;3.87;2.97;;;;;;;16.18;42.21;97822.81;8380180;28;20515;-73
2023/03/29 16:54:20;;;;;;;4.47;2.77;;;;;;;16.17;42.93;97847.28;8380156;28;20420;-72
2023/03/29 16:58:23;;;;;;;3.90;2.60;;;;;;;14.76;42.68;97614.16;8384878;28;20236;-71
2023/03/29 17:02:27;;;;;;;3.77;3.07;;;;;;;16.20;42.66;97846.22;8381279;28;20229;-70
2023/03/29 17:06:31;;;;;;;3.20;2.70;;;;;;;16.07;42.79;97835.78;8384311;28;20477;-70
2023/03/29 17:10:34;;;;;;;5.20;3.17;;;;;;;15.93;43.50;97836.72;8383606;28;20230;-71
2023/03/29 17:14:37;;;;;;;4.10;2.93;;;;;;;16.00;43.12;97834.53;8380402;28;20238;-71
2023/03/29 17:18:41;;;;;;;3.47;2.60;;;;;;;16.03;43.48;97840.38;8380361;28;20647;-72
2023/03/29 17:22:44;;;;;;;3.73;2.93;;;;;;;16.01;43.49;97841.41;8379027;28;20226;-72
2023/03/29 17:26:47;;;;;;;2.70;2.50;;;;;;;15.93;43.69;97839.31;8378922;28;20240;-72
2023/03/29 17:30:51;;;;;;;3.40;2.43;;;;;;;15.96;43.79;97846.13;8379127;28;20249;-72
2023/03/29 17:34:55;;;;;;;3.70;2.40;;;;;;;15.93;44.12;97826.28;8378828;28;20235;-72
2023/03/29 17:38:58;;;;;;;3.33;2.70;;;;;;;15.92;44.29;97829.84;8379055;28;20427;-72
2023/03/29 17:43:01;;;;;;;4.33;3.40;;;;;;;15.90;44.30;97831.72;8378935;28;20299;-72
2023/03/29 17:47:05;;;;;;;8.20;4.83;;;;;;;15.76;44.52;97826.59;8379066;28;20221;-72
2023/03/29 17:51:09;;;;;;;8.20;5.17;;;;;;;15.79;44.59;97821.16;8378351;28;20231;-72
2023/03/29 17:55:13;;;;;;;8.60;5.50;;;;;;;15.79;44.33;97821.16;8378707;28;20231;-73
2023/03/29 17:59:17;;;;;;;8.20;5.27;;;;;;;15.77;44.43;97815.22;8378384;28;20236;-72
2023/03/29 18:03:20;;;;;;;6.53;4.70;;;;;;;15.71;44.26;97826.06;8377844;28;20232;-72
2023/03/29 18:07:24;;;;;;;5.53;4.47;;;;;;;15.63;44.29;97811.72;8378742;28;20229;-72
2023/03/29 18:11:28;;;;;;;7.33;6.40;;;;;;;15.68;44.50;97832.28;8378660;28;20228;-72
2023/03/29 18:15:31;;;;;;;6.33;4.37;;;;;;;15.50;44.68;97818.72;8378554;28;20240;-72
2023/03/29 18:19:33;;;;;;;5.67;3.40;;;;;;;15.55;44.48;97823.63;8378633;28;20239;-72
2023/03/29 18:23:41;;;;;;;3.37;2.97;;;;;;;15.38;44.76;97833.41;8378285;28;20440;-72
2023/03/29 18:27:44;;;;;;;4.00;2.93;;;;;;;15.56;44.40;97833.13;8377868;28;20233;-72
2023/03/29 18:31:48;;;;;;;4.77;2.50;;;;;;;16.09;49.64;97839.13;8378174;28;20236;-72
2023/03/29 18:35:53;;;;;;;5.30;2.97;;;;;;;15.73;45.43;97829.41;8378954;28;20533;-72
2023/03/29 18:39:57;;;;;;;3.97;2.60;;;;;;;15.89;44.58;97832.66;8377786;28;20308;-72
2023/03/29 18:44:00;;;;;;;6.33;4.23;;;;;;;15.51;44.68;97802.09;8378026;28;20544;-71
2023/03/29 18:48:04;;;;;;;4.47;3.67;;;;;;;15.76;44.45;97831.81;8378179;28;20232;-71
2023/03/29 18:52:07;;;;;;;3.53;2.80;;;;;;;15.24;45.53;97823.03;8378007;28;20442;-71
2023/03/29 18:56:12;;;;;;;6.63;3.00;;;;;;;15.48;44.93;97827.56;8377668;28;20516;-71
2023/03/29 19:00:15;;;;;;;3.53;3.23;;;;;;;15.51;44.90;97817.75;8377754;28;20228;-71
2023/03/29 19:04:19;;;;;;;6.33;4.30;;;;;;;15.45;45.29;97821.63;8377956;28;20221;-70
2023/03/29 19:08:22;;;;;;;3.93;3.03;;;;;;;15.45;45.23;97821.63;8378025;28;20422;-70
2023/03/29 19:12:26;;;;;;;4.43;3.97;;;;;;;15.51;45.33;97817.75;8378191;28;20413;-70
2023/03/29 19:16:29;;;;;;;5.17;3.50;;;;;;;15.58;45.44;97821.63;8383315;28;20232;-70
2023/03/29 19:20:32;;;;;;;4.93;3.13;;;;;;;15.50;45.78;97820.47;8383356;28;20431;-70